Time;durP1;ratioP1;P1;durP2;ratioP2;P2;SDS_P1;SDS_P2;PMS_P1;PMS_P2;Temp;Humidity;BMP_temperature;BMP_pressure;BME280_temperature;BME280_humidity;BME280_pressure;Samples;Min_cycle;Max_cycle;Signal;HPM_P1;HPM_P2
2023/12/13 00:00:23;;;;;;;;;;;5.60;99.90;;;;;;5001985;28;19912;-78
2023/12/13 00:02:48;;;;;;;;;;;5.60;99.90;;;;;;5001540;28;19924;-78
2023/12/13 00:05:14;;;;;;;;;;;5.60;99.90;;;;;;5002348;28;19926;-78
2023/12/13 00:07:39;;;;;;;;;;;5.60;99.90;;;;;;5003097;28;20398;-78
2023/12/13 00:10:05;;;;;;;;;;;5.50;99.90;;;;;;5003254;28;19909;-78
2023/12/13 00:12:31;;;;;;;;;;;5.50;99.90;;;;;;4999033;28;19921;-77
2023/12/13 00:14:56;;;;;;;;;;;5.50;99.90;;;;;;5000043;28;20294;-77
2023/12/13 00:17:22;;;;;;;;;;;5.40;99.90;;;;;;5000581;28;19910;-78
2023/12/13 00:19:47;;;;;;;;;;;5.40;99.90;;;;;;5000097;28;19917;-77
2023/12/13 00:22:13;;;;;;;;;;;5.50;99.90;;;;;;5000139;28;19925;-77
2023/12/13 00:24:38;;;;;;;;;;;5.40;99.90;;;;;;5000516;28;20042;-78
2023/12/13 00:27:04;;;;;;;;;;;5.60;99.90;;;;;;4999850;28;19906;-79
2023/12/13 00:29:29;;;;;;;;;;;5.50;99.90;;;;;;4999377;28;20421;-77
2023/12/13 00:31:55;;;;;;;;;;;5.50;99.90;;;;;;4998809;28;19945;-77
2023/12/13 00:34:20;;;;;;;;;;;5.70;99.90;;;;;;4997509;28;20430;-78
2023/12/13 00:36:46;;;;;;;;;;;5.70;99.90;;;;;;4997713;28;19960;-78
2023/12/13 00:39:12;;;;;;;;;;;5.80;99.90;;;;;;4997303;28;19960;-77
2023/12/13 00:41:37;;;;;;;;;;;5.80;99.90;;;;;;4999650;28;19976;-78
2023/12/13 00:44:05;;;;;;;;;;;5.80;99.90;;;;;;4999893;28;19925;-77
2023/12/13 00:46:31;;;;;;;;;;;5.90;99.90;;;;;;4999582;28;19968;-77
2023/12/13 00:48:56;;;;;;;;;;;5.90;99.90;;;;;;4998808;28;19910;-77
2023/12/13 00:51:22;;;;;;;;;;;5.90;99.90;;;;;;4997860;28;19909;-77
2023/12/13 00:53:48;;;;;;;;;;;5.90;99.90;;;;;;4997463;28;20470;-78
2023/12/13 00:56:14;;;;;;;;;;;5.90;99.90;;;;;;4997794;28;20377;-77
2023/12/13 00:58:39;;;;;;;;;;;6.00;99.90;;;;;;4997396;28;19916;-77
2023/12/13 01:01:05;;;;;;;;;;;6.00;99.90;;;;;;4996088;28;19973;-77
2023/12/13 01:03:31;;;;;;;;;;;6.10;99.90;;;;;;4995007;28;19980;-76
2023/12/13 01:05:56;;;;;;;;;;;6.10;99.90;;;;;;4995590;28;20301;-77
2023/12/13 01:08:22;;;;;;;;;;;6.00;99.90;;;;;;4995668;28;19961;-77
2023/12/13 01:10:47;;;;;;;;;;;6.20;99.90;;;;;;4994755;28;19906;-77
2023/12/13 01:13:13;;;;;;;;;;;6.30;99.90;;;;;;4994258;28;19909;-76
2023/12/13 01:15:38;;;;;;;;;;;6.10;99.90;;;;;;4995397;28;20385;-77
2023/12/13 01:18:04;;;;;;;;;;;6.20;99.90;;;;;;4994857;28;19913;-77
2023/12/13 01:20:29;;;;;;;;;;;6.20;99.90;;;;;;4993897;28;19910;-76
2023/12/13 01:22:55;;;;;;;;;;;6.20;99.90;;;;;;4997900;28;19910;-78
2023/12/13 01:25:20;;;;;;;;;;;6.10;99.90;;;;;;5000664;28;19933;-77
2023/12/13 01:27:46;;;;;;;;;;;6.10;99.90;;;;;;4995626;28;20371;-77
2023/12/13 01:30:11;;;;;;;;;;;6.20;99.90;;;;;;4993484;28;19936;-77
2023/12/13 01:32:37;;;;;;;;;;;6.20;99.90;;;;;;4992866;28;19906;-76
2023/12/13 01:35:03;;;;;;;;;;;6.20;99.90;;;;;;4993547;28;19909;-77
2023/12/13 01:37:29;;;;;;;;;;;6.20;99.90;;;;;;4993489;28;19997;-76
2023/12/13 01:39:56;;;;;;;;;;;6.30;99.90;;;;;;4993223;28;19949;-77
2023/12/13 01:42:22;;;;;;;;;;;6.30;99.90;;;;;;4992987;28;20310;-77
2023/12/13 01:44:48;;;;;;;;;;;6.20;99.90;;;;;;4995443;28;20004;-76
2023/12/13 01:47:13;;;;;;;;;;;6.10;99.90;;;;;;4994782;28;20294;-78
2023/12/13 01:49:39;;;;;;;;;;;6.00;99.90;;;;;;4996366;28;19909;-77
2023/12/13 01:52:06;;;;;;;;;;;5.90;99.90;;;;;;4997350;28;19910;-77
2023/12/13 01:54:31;;;;;;;;;;;5.80;99.90;;;;;;4996572;28;20271;-77
2023/12/13 01:56:57;;;;;;;;;;;5.80;99.90;;;;;;4996157;28;19913;-77
2023/12/13 01:59:23;;;;;;;;;;;5.80;99.90;;;;;;4997034;28;19905;-77
2023/12/13 02:01:52;;;;;;;;;;;5.80;99.90;;;;;;4994780;28;19949;-77
2023/12/13 02:04:19;;;;;;;;;;;5.80;99.90;;;;;;4995679;28;19917;-76
2023/12/13 02:06:44;;;;;;;;;;;5.90;99.90;;;;;;4994969;28;19917;-77
2023/12/13 02:09:10;;;;;;;;;;;5.90;99.90;;;;;;4994309;28;19910;-77
2023/12/13 02:11:36;;;;;;;;;;;6.00;99.90;;;;;;5000542;28;20413;-77
2023/12/13 02:14:01;;;;;;;;;;;5.90;99.90;;;;;;4997223;28;19914;-77
2023/12/13 02:16:27;;;;;;;;;;;5.80;99.90;;;;;;4997773;28;19910;-78
2023/12/13 02:18:52;;;;;;;;;;;5.80;99.90;;;;;;4997311;28;20309;-77
2023/12/13 02:21:18;;;;;;;;;;;5.80;99.90;;;;;;4996828;28;20545;-78
2023/12/13 02:23:43;;;;;;;;;;;5.80;99.90;;;;;;4997062;28;19918;-77
2023/12/13 02:26:11;;;;;;;;;;;5.80;99.90;;;;;;4997566;28;19956;-77
2023/12/13 02:28:37;;;;;;;;;;;5.80;99.90;;;;;;4995850;28;19910;-77
2023/12/13 02:31:03;;;;;;;;;;;5.80;99.90;;;;;;5009546;28;19913;-76
2023/12/13 02:33:29;;;;;;;;;;;5.80;99.90;;;;;;4993846;28;19980;-77
2023/12/13 02:35:57;;;;;;;;;;;5.70;99.90;;;;;;4995399;28;19910;-78
2023/12/13 02:38:23;;;;;;;;;;;5.80;99.90;;;;;;4996205;28;20240;-78
2023/12/13 02:40:48;;;;;;;;;;;5.70;99.90;;;;;;4996371;28;20441;-78
2023/12/13 02:43:14;;;;;;;;;;;5.80;99.90;;;;;;5011225;28;20009;-76
2023/12/13 02:45:40;;;;;;;;;;;5.90;99.90;;;;;;4987788;28;20434;-76
2023/12/13 02:48:05;;;;;;;;;;;5.80;99.90;;;;;;4994960;28;19913;-76
2023/12/13 02:50:31;;;;;;;;;;;5.80;99.90;;;;;;4995444;28;20298;-77
2023/12/13 02:52:56;;;;;;;;;;;5.70;99.90;;;;;;4994821;28;20024;-77
2023/12/13 02:55:22;;;;;;;;;;;5.70;99.90;;;;;;4996133;28;20302;-77
2023/12/13 02:57:47;;;;;;;;;;;5.70;99.90;;;;;;4996064;28;20392;-77
2023/12/13 03:00:13;;;;;;;;;;;5.90;99.90;;;;;;4993573;28;19910;-77
2023/12/13 03:02:42;;;;;;;;;;;6.00;99.90;;;;;;4995125;28;19906;-77
2023/12/13 03:05:07;;;;;;;;;;;6.00;99.90;;;;;;4994474;28;19921;-76
2023/12/13 03:07:33;;;;;;;;;;;6.10;99.90;;;;;;4993464;28;19952;-77
2023/12/13 03:09:59;;;;;;;;;;;6.00;99.90;;;;;;4995694;28;20379;-77
2023/12/13 03:12:24;;;;;;;;;;;6.10;99.90;;;;;;4993511;28;19906;-77
2023/12/13 03:14:50;;;;;;;;;;;6.10;99.90;;;;;;4992579;28;19910;-76
2023/12/13 03:17:15;;;;;;;;;;;6.10;99.90;;;;;;5009628;28;19909;-77
2023/12/13 03:19:41;;;;;;;;;;;6.00;99.90;;;;;;4995631;28;19920;-77
2023/12/13 03:22:07;;;;;;;;;;;5.90;99.90;;;;;;4994295;28;19905;-77
2023/12/13 03:24:32;;;;;;;;;;;5.80;99.90;;;;;;4995505;28;19977;-77
2023/12/13 03:26:58;;;;;;;;;;;5.80;99.90;;;;;;4995237;28;19945;-78
2023/12/13 03:29:23;;;;;;;;;;;5.90;99.90;;;;;;4996627;28;19913;-77
2023/12/13 03:31:49;;;;;;;;;;;5.80;99.90;;;;;;4994117;28;20012;-77
2023/12/13 03:34:14;;;;;;;;;;;6.00;99.90;;;;;;4994380;28;19910;-77
2023/12/13 03:36:40;;;;;;;;;;;6.00;99.90;;;;;;4995075;28;19929;-77
2023/12/13 03:39:07;;;;;;;;;;;6.00;99.90;;;;;;4998344;28;19957;-77
2023/12/13 03:41:33;;;;;;;;;;;6.00;99.90;;;;;;4996129;28;19913;-78
2023/12/13 03:43:58;;;;;;;;;;;6.00;99.90;;;;;;4993361;28;20280;-77
2023/12/13 03:46:24;;;;;;;;;;;6.00;99.90;;;;;;4994304;28;19906;-78
2023/12/13 03:48:49;;;;;;;;;;;5.90;99.90;;;;;;4992684;28;19912;-77
2023/12/13 03:51:15;;;;;;;;;;;5.90;99.90;;;;;;4993647;28;19906;-76
2023/12/13 03:53:42;;;;;;;;;;;5.90;99.90;;;;;;4993861;28;19905;-77
2023/12/13 03:56:09;;;;;;;;;;;5.90;99.90;;;;;;4993718;28;19913;-77
2023/12/13 03:58:34;;;;;;;;;;;5.80;99.90;;;;;;4992546;28;20131;-77
2023/12/13 04:01:00;;;;;;;;;;;5.90;99.90;;;;;;5008106;28;20576;-77
2023/12/13 04:03:25;;;;;;;;;;;5.80;99.90;;;;;;4992982;28;19964;-76
2023/12/13 04:05:51;;;;;;;;;;;5.90;99.90;;;;;;4993206;28;19925;-77
2023/12/13 04:08:16;;;;;;;;;;;5.80;99.90;;;;;;4993753;28;19909;-77
2023/12/13 04:10:42;;;;;;;;;;;5.80;99.90;;;;;;4992469;28;19921;-77
2023/12/13 04:13:07;;;;;;;;;;;5.80;99.90;;;;;;4992453;28;19906;-77
2023/12/13 04:15:33;;;;;;;;;;;5.80;99.90;;;;;;4991396;28;20001;-77
2023/12/13 04:17:58;;;;;;;;;;;5.80;99.90;;;;;;4992322;28;19910;-77
2023/12/13 04:20:24;;;;;;;;;;;5.80;99.90;;;;;;4993498;28;20432;-77
2023/12/13 04:22:49;;;;;;;;;;;5.80;99.90;;;;;;4991195;28;19912;-77
2023/12/13 04:25:15;;;;;;;;;;;5.80;99.90;;;;;;4991241;28;19914;-77
2023/12/13 04:27:40;;;;;;;;;;;5.70;99.90;;;;;;4992664;28;19929;-77
2023/12/13 04:30:06;;;;;;;;;;;5.70;99.90;;;;;;4993189;28;19916;-77
2023/12/13 04:32:32;;;;;;;;;;;5.70;99.90;;;;;;4991684;28;19905;-77
2023/12/13 04:34:58;;;;;;;;;;;5.70;99.90;;;;;;4992089;28;20405;-75
2023/12/13 04:37:24;;;;;;;;;;;5.70;99.90;;;;;;4992803;28;19913;-77
2023/12/13 04:39:49;;;;;;;;;;;5.80;99.90;;;;;;4992096;28;19910;-77
2023/12/13 04:42:15;;;;;;;;;;;5.70;99.90;;;;;;4992469;28;20016;-77
2023/12/13 04:44:40;;;;;;;;;;;5.60;99.90;;;;;;4995537;28;19920;-78
2023/12/13 04:47:06;;;;;;;;;;;5.70;99.90;;;;;;4996280;28;19959;-77
2023/12/13 04:49:32;;;;;;;;;;;5.80;99.90;;;;;;4995995;28;20412;-77
2023/12/13 04:51:57;;;;;;;;;;;5.70;99.90;;;;;;4997480;28;19909;-77
2023/12/13 04:54:23;;;;;;;;;;;5.70;99.90;;;;;;4995769;28;19909;-77
2023/12/13 04:56:48;;;;;;;;;;;5.70;99.90;;;;;;4996374;28;19913;-77
2023/12/13 04:59:14;;;;;;;;;;;5.80;99.90;;;;;;4997942;28;20509;-77
2023/12/13 05:01:39;;;;;;;;;;;5.70;99.90;;;;;;4996857;28;19913;-77
2023/12/13 05:04:05;;;;;;;;;;;5.70;99.90;;;;;;4996404;28;19949;-77
2023/12/13 05:06:32;;;;;;;;;;;5.70;99.90;;;;;;4997154;28;19925;-77
2023/12/13 05:08:57;;;;;;;;;;;5.70;99.90;;;;;;4996935;28;20000;-77
2023/12/13 05:11:23;;;;;;;;;;;5.70;99.90;;;;;;4995045;28;20440;-77
2023/12/13 05:13:48;;;;;;;;;;;5.70;99.90;;;;;;4997575;28;19909;-77
2023/12/13 05:16:14;;;;;;;;;;;5.60;99.90;;;;;;4995584;28;19945;-77
2023/12/13 05:18:40;;;;;;;;;;;5.60;99.90;;;;;;4995654;28;19933;-76
2023/12/13 05:21:05;;;;;;;;;;;5.70;99.90;;;;;;4996287;28;19909;-77
2023/12/13 05:23:31;;;;;;;;;;;5.60;99.90;;;;;;4996137;28;19921;-77
2023/12/13 05:25:56;;;;;;;;;;;5.70;99.90;;;;;;4995939;28;19933;-77
2023/12/13 05:28:22;;;;;;;;;;;5.70;99.90;;;;;;4997242;28;19910;-78
2023/12/13 05:30:47;;;;;;;;;;;5.70;99.90;;;;;;4998077;28;19909;-78
2023/12/13 05:33:13;;;;;;;;;;;5.70;99.90;;;;;;4995692;28;19913;-77
2023/12/13 05:35:38;;;;;;;;;;;5.60;99.90;;;;;;4997117;28;19912;-77
2023/12/13 05:38:04;;;;;;;;;;;5.80;99.90;;;;;;4996652;28;19928;-78
2023/12/13 05:40:31;;;;;;;;;;;5.60;99.90;;;;;;4996392;28;19905;-77
2023/12/13 05:42:57;;;;;;;;;;;5.60;99.90;;;;;;4995965;28;19913;-77
2023/12/13 05:45:22;;;;;;;;;;;5.60;99.90;;;;;;4996049;28;19918;-79
2023/12/13 05:47:48;;;;;;;;;;;5.70;99.90;;;;;;4998161;28;19906;-77
2023/12/13 05:50:13;;;;;;;;;;;5.60;99.90;;;;;;5000012;28;19910;-78
2023/12/13 05:52:39;;;;;;;;;;;5.70;99.90;;;;;;5003015;28;19909;-77
2023/12/13 05:55:05;;;;;;;;;;;5.60;99.90;;;;;;4996650;28;19905;-77
2023/12/13 05:57:31;;;;;;;;;;;5.60;99.90;;;;;;4996574;28;19956;-77
2023/12/13 05:59:56;;;;;;;;;;;5.60;99.90;;;;;;5012105;28;19905;-77
2023/12/13 06:02:22;;;;;;;;;;;5.60;99.90;;;;;;4997334;28;19910;-77
2023/12/13 06:04:47;;;;;;;;;;;5.60;99.90;;;;;;4997700;28;19925;-77
2023/12/13 06:07:13;;;;;;;;;;;5.60;99.90;;;;;;5012661;28;19949;-77
2023/12/13 06:09:40;;;;;;;;;;;5.50;99.90;;;;;;4998452;28;19993;-78
2023/12/13 06:12:06;;;;;;;;;;;5.50;99.90;;;;;;4996207;28;20371;-78
2023/12/13 06:14:31;;;;;;;;;;;5.60;99.90;;;;;;4996781;28;19916;-77
2023/12/13 06:16:57;;;;;;;;;;;5.60;99.90;;;;;;4998024;28;19905;-77
2023/12/13 06:19:26;;;;;;;;;;;5.60;99.90;;;;;;4997739;28;19968;-77
2023/12/13 06:21:52;;;;;;;;;;;5.70;99.90;;;;;;4998006;28;19910;-78
2023/12/13 06:24:18;;;;;;;;;;;5.60;99.90;;;;;;4996797;28;19917;-78
2023/12/13 06:26:43;;;;;;;;;;;5.60;99.90;;;;;;4996004;28;19913;-78
2023/12/13 06:29:11;;;;;;;;;;;5.70;99.90;;;;;;4997741;28;20285;-78
2023/12/13 06:31:37;;;;;;;;;;;5.70;99.90;;;;;;4997319;28;19906;-78
2023/12/13 06:34:02;;;;;;;;;;;5.60;99.90;;;;;;4997929;28;19905;-78
2023/12/13 06:36:29;;;;;;;;;;;5.80;99.90;;;;;;4996294;28;19906;-77
2023/12/13 06:38:55;;;;;;;;;;;5.70;99.90;;;;;;4996183;28;19965;-78
2023/12/13 06:41:20;;;;;;;;;;;5.60;99.90;;;;;;4997162;28;20350;-78
2023/12/13 06:43:47;;;;;;;;;;;5.60;99.90;;;;;;4996294;28;20024;-78
2023/12/13 06:46:12;;;;;;;;;;;5.70;99.90;;;;;;4998030;28;19937;-78
2023/12/13 06:48:38;;;;;;;;;;;5.70;99.90;;;;;;4998040;28;20283;-77
2023/12/13 06:51:04;;;;;;;;;;;5.60;99.90;;;;;;4997358;28;19909;-78
2023/12/13 06:53:29;;;;;;;;;;;5.70;99.90;;;;;;4997103;28;19916;-77
2023/12/13 06:55:55;;;;;;;;;;;5.70;99.90;;;;;;4997832;28;19910;-77
2023/12/13 06:58:20;;;;;;;;;;;5.70;99.90;;;;;;4997001;28;19945;-77
2023/12/13 07:00:46;;;;;;;;;;;5.70;99.90;;;;;;4998222;28;20358;-78
2023/12/13 07:03:11;;;;;;;;;;;5.70;99.90;;;;;;4996688;28;19917;-78
2023/12/13 07:05:37;;;;;;;;;;;5.70;99.90;;;;;;4997776;28;19968;-77
2023/12/13 07:08:03;;;;;;;;;;;5.80;99.90;;;;;;4998140;28;20387;-77
2023/12/13 07:10:28;;;;;;;;;;;5.70;99.90;;;;;;4999115;28;20040;-77
2023/12/13 07:12:54;;;;;;;;;;;5.70;99.90;;;;;;4997826;28;19909;-78
2023/12/13 07:15:19;;;;;;;;;;;5.60;99.90;;;;;;4998134;28;19913;-78
2023/12/13 07:17:45;;;;;;;;;;;5.70;99.90;;;;;;4998067;28;19906;-78
2023/12/13 07:20:11;;;;;;;;;;;5.70;99.90;;;;;;4998178;28;20000;-78
2023/12/13 07:22:36;;;;;;;;;;;5.70;99.90;;;;;;4997900;28;20004;-77
2023/12/13 07:25:02;;;;;;;;;;;5.70;99.90;;;;;;4997707;28;19945;-78
2023/12/13 07:27:28;;;;;;;;;;;5.70;99.90;;;;;;4997480;28;19909;-78
2023/12/13 07:29:54;;;;;;;;;;;5.80;99.90;;;;;;4998927;28;19960;-78
2023/12/13 07:32:19;;;;;;;;;;;5.80;99.90;;;;;;4999918;28;19928;-78
2023/12/13 07:34:45;;;;;;;;;;;5.90;99.90;;;;;;4999175;28;19906;-78
2023/12/13 07:37:10;;;;;;;;;;;5.90;99.90;;;;;;4999348;28;19910;-78
2023/12/13 07:39:36;;;;;;;;;;;5.90;99.90;;;;;;4998750;28;19905;-78
2023/12/13 07:42:03;;;;;;;;;;;6.00;99.90;;;;;;4999120;28;19996;-78
2023/12/13 07:44:31;;;;;;;;;;;6.10;99.90;;;;;;4999584;28;19933;-78
2023/12/13 07:46:56;;;;;;;;;;;5.90;99.90;;;;;;5000007;28;19927;-76
2023/12/13 07:49:22;;;;;;;;;;;5.80;99.90;;;;;;4999949;28;20481;-77
2023/12/13 07:51:47;;;;;;;;;;;5.80;99.90;;;;;;5000267;28;19993;-79
2023/12/13 07:54:16;;;;;;;;;;;6.00;99.90;;;;;;4998000;28;20438;-78
2023/12/13 07:56:41;;;;;;;;;;;5.90;99.90;;;;;;4999517;28;19916;-78
2023/12/13 07:59:07;;;;;;;;;;;5.80;99.90;;;;;;4998987;28;19906;-78
2023/12/13 08:01:32;;;;;;;;;;;5.90;99.90;;;;;;4997367;28;20390;-78
2023/12/13 08:03:58;;;;;;;;;;;5.90;99.90;;;;;;5004762;28;19982;-79
2023/12/13 08:06:24;;;;;;;;;;;6.00;99.90;;;;;;5003665;28;20328;-78
2023/12/13 08:08:51;;;;;;;;;;;6.00;99.90;;;;;;4998797;28;19917;-78
2023/12/13 08:11:16;;;;;;;;;;;6.00;99.90;;;;;;4999065;28;20478;-77
2023/12/13 08:13:42;;;;;;;;;;;6.10;99.90;;;;;;4997738;28;19957;-78
2023/12/13 08:16:09;;;;;;;;;;;6.10;99.90;;;;;;4997837;28;19910;-78
2023/12/13 08:18:35;;;;;;;;;;;6.10;99.90;;;;;;4999848;28;19913;-78
2023/12/13 08:21:01;;;;;;;;;;;6.10;99.90;;;;;;5000585;28;19906;-77
2023/12/13 08:23:26;;;;;;;;;;;6.10;99.90;;;;;;4999726;28;19941;-78
2023/12/13 08:25:52;;;;;;;;;;;6.10;99.90;;;;;;5001629;28;19909;-78
2023/12/13 08:28:17;;;;;;;;;;;6.10;99.90;;;;;;5002496;28;19909;-78
2023/12/13 08:30:43;;;;;;;;;;;6.10;99.90;;;;;;5000085;28;19906;-78
2023/12/13 08:33:08;;;;;;;;;;;6.10;99.90;;;;;;5000668;28;19917;-78
2023/12/13 08:35:34;;;;;;;;;;;6.10;99.90;;;;;;5000388;28;19973;-78
2023/12/13 08:37:59;;;;;;;;;;;6.10;99.90;;;;;;5001186;28;19909;-78
2023/12/13 08:40:25;;;;;;;;;;;6.10;99.90;;;;;;4999792;28;19916;-79
2023/12/13 08:42:50;;;;;;;;;;;6.20;99.90;;;;;;5000073;28;19973;-78
2023/12/13 08:45:16;;;;;;;;;;;6.20;99.90;;;;;;5000922;28;19906;-78
2023/12/13 08:47:41;;;;;;;;;;;6.20;99.90;;;;;;4999601;28;19913;-78
2023/12/13 08:50:07;;;;;;;;;;;6.20;99.90;;;;;;5000269;28;19910;-77
2023/12/13 08:52:33;;;;;;;;;;;6.20;99.90;;;;;;4998376;28;19916;-78
2023/12/13 08:54:58;;;;;;;;;;;6.30;99.90;;;;;;4999899;28;19933;-78
2023/12/13 08:57:24;;;;;;;;;;;6.20;99.90;;;;;;4999196;28;19996;-78
2023/12/13 08:59:49;;;;;;;;;;;6.20;99.90;;;;;;4999405;28;19906;-77
2023/12/13 09:02:15;;;;;;;;;;;6.30;99.90;;;;;;5000852;28;19906;-78
2023/12/13 09:04:40;;;;;;;;;;;6.20;99.90;;;;;;5000785;28;19925;-78
2023/12/13 09:07:06;;;;;;;;;;;6.30;99.90;;;;;;5000561;28;20000;-77
2023/12/13 09:09:32;;;;;;;;;;;6.30;99.90;;;;;;4999157;28;19910;-79
2023/12/13 09:12:00;;;;;;;;;;;6.20;99.90;;;;;;5000430;28;19941;-79
2023/12/13 09:14:27;;;;;;;;;;;6.30;99.90;;;;;;5000824;28;19921;-78
2023/12/13 09:16:52;;;;;;;;;;;6.30;99.90;;;;;;4999854;28;19982;-78
2023/12/13 09:19:18;;;;;;;;;;;6.30;99.90;;;;;;5000237;28;19953;-79
2023/12/13 09:21:43;;;;;;;;;;;6.30;99.90;;;;;;4999385;28;19910;-77
2023/12/13 09:24:09;;;;;;;;;;;6.30;99.90;;;;;;4999247;28;19917;-78
2023/12/13 09:26:37;;;;;;;;;;;6.30;99.90;;;;;;4999607;28;19906;-77
2023/12/13 09:29:03;;;;;;;;;;;6.20;99.90;;;;;;4998860;28;19913;-78
2023/12/13 09:31:29;;;;;;;;;;;6.20;99.90;;;;;;5000782;28;19906;-79
2023/12/13 09:33:54;;;;;;;;;;;6.40;99.90;;;;;;4998921;28;19916;-78
2023/12/13 09:36:20;;;;;;;;;;;6.30;99.90;;;;;;4998923;28;19906;-78
2023/12/13 09:38:46;;;;;;;;;;;6.40;99.90;;;;;;5000224;28;19916;-77
2023/12/13 09:41:18;;;;;;;;;;;6.30;99.90;;;;;;5014610;28;19910;-78
2023/12/13 09:43:44;;;;;;;;;;;6.30;99.90;;;;;;4999684;28;19921;-78
2023/12/13 09:46:13;;;;;;;;;;;6.40;99.90;;;;;;5000126;28;19909;-78
2023/12/13 09:48:39;;;;;;;;;;;6.30;99.90;;;;;;4998143;28;19912;-77
2023/12/13 09:51:05;;;;;;;;;;;6.30;99.90;;;;;;4999081;28;19949;-78
2023/12/13 09:53:33;;;;;;;;;;;6.30;99.90;;;;;;4998136;28;19916;-77
2023/12/13 09:56:00;;;;;;;;;;;6.30;99.90;;;;;;4999217;28;20354;-78
2023/12/13 09:58:25;;;;;;;;;;;6.40;99.90;;;;;;4999029;28;19936;-79
2023/12/13 10:00:51;;;;;;;;;;;6.30;99.90;;;;;;4999096;28;19909;-78
2023/12/13 10:03:16;;;;;;;;;;;6.30;99.90;;;;;;4997791;28;19925;-78
2023/12/13 10:05:43;;;;;;;;;;;6.30;99.90;;;;;;4998311;28;20382;-78
2023/12/13 10:08:09;;;;;;;;;;;6.30;99.90;;;;;;4999195;28;19906;-78
2023/12/13 10:10:35;;;;;;;;;;;6.30;99.90;;;;;;5014343;28;20157;-78
2023/12/13 10:13:01;;;;;;;;;;;6.40;99.90;;;;;;4998518;28;20291;-78
2023/12/13 10:15:31;;;;;;;;;;;6.40;99.90;;;;;;5003949;28;19937;-79
2023/12/13 10:17:57;;;;;;;;;;;6.40;99.90;;;;;;4999027;28;19913;-78
2023/12/13 10:20:23;;;;;;;;;;;6.40;99.90;;;;;;4999091;28;19953;-79
2023/12/13 10:22:49;;;;;;;;;;;6.40;99.90;;;;;;4998029;28;19906;-79
2023/12/13 10:25:14;;;;;;;;;;;6.40;99.90;;;;;;4997654;28;19960;-77
2023/12/13 10:27:40;;;;;;;;;;;6.40;99.90;;;;;;4997607;28;19906;-78
2023/12/13 10:30:06;;;;;;;;;;;6.40;99.90;;;;;;4998615;28;19906;-78
2023/12/13 10:32:32;;;;;;;;;;;6.40;99.90;;;;;;4996512;28;19914;-77
2023/12/13 10:34:57;;;;;;;;;;;6.40;99.90;;;;;;4997453;28;19912;-78
2023/12/13 10:37:27;;;;;;;;;;;6.40;99.90;;;;;;4996000;28;19980;-77
2023/12/13 10:39:55;;;;;;;;;;;6.40;99.90;;;;;;4996773;28;19914;-79
2023/12/13 10:42:24;;;;;;;;;;;6.50;99.90;;;;;;4995774;28;19906;-78
2023/12/13 10:44:50;;;;;;;;;;;6.40;99.90;;;;;;4995302;28;20384;-78
2023/12/13 10:47:16;;;;;;;;;;;6.40;99.90;;;;;;4996347;28;19941;-78
2023/12/13 10:49:43;;;;;;;;;;;6.50;99.90;;;;;;4995015;28;19920;-78
2023/12/13 10:52:09;;;;;;;;;;;6.40;99.90;;;;;;4997262;28;19945;-78
2023/12/13 10:54:36;;;;;;;;;;;6.40;99.90;;;;;;4996400;28;19913;-76
2023/12/13 10:57:02;;;;;;;;;;;6.50;99.90;;;;;;4995974;28;19914;-77
2023/12/13 10:59:28;;;;;;;;;;;6.40;99.90;;;;;;4995132;28;19917;-78
2023/12/13 11:01:54;;;;;;;;;;;6.50;99.90;;;;;;5012159;28;19949;-78
2023/12/13 11:04:20;;;;;;;;;;;6.50;99.90;;;;;;4996746;28;20071;-77
2023/12/13 11:06:46;;;;;;;;;;;6.50;99.90;;;;;;4995878;28;20378;-78
2023/12/13 11:09:13;;;;;;;;;;;6.40;99.90;;;;;;4994982;28;19910;-77
2023/12/13 11:11:39;;;;;;;;;;;6.60;99.90;;;;;;4996171;28;20004;-78
2023/12/13 11:14:05;;;;;;;;;;;6.60;99.90;;;;;;4996124;28;20444;-78
2023/12/13 11:16:37;;;;;;;;;;;6.50;99.90;;;;;;4997365;28;20378;-78
2023/12/13 11:19:03;;;;;;;;;;;6.60;99.90;;;;;;4996118;28;19910;-78
2023/12/13 11:21:29;;;;;;;;;;;6.60;99.90;;;;;;4996432;28;19909;-78
2023/12/13 11:23:58;;;;;;;;;;;6.60;99.90;;;;;;4997895;28;19918;-78
2023/12/13 11:26:26;;;;;;;;;;;6.70;99.90;;;;;;4996623;28;19992;-77
2023/12/13 11:28:52;;;;;;;;;;;6.70;99.90;;;;;;4998483;28;19910;-77
2023/12/13 11:31:22;;;;;;;;;;;6.70;99.90;;;;;;4996697;28;20029;-77
2023/12/13 11:33:48;;;;;;;;;;;6.60;99.90;;;;;;4998851;28;20353;-78
2023/12/13 11:36:17;;;;;;;;;;;6.70;99.90;;;;;;4998636;28;19911;-78
2023/12/13 11:38:42;;;;;;;;;;;6.70;99.90;;;;;;4997503;28;20298;-78
2023/12/13 11:41:08;;;;;;;;;;;6.80;99.90;;;;;;4998894;28;19906;-78
2023/12/13 11:43:33;;;;;;;;;;;6.80;99.90;;;;;;4997100;28;19920;-77
2023/12/13 11:46:00;;;;;;;;;;;6.80;99.90;;;;;;4998232;28;19910;-78
2023/12/13 11:48:26;;;;;;;;;;;6.80;99.90;;;;;;4997719;28;19909;-77
2023/12/13 11:50:52;;;;;;;;;;;6.80;99.90;;;;;;4996899;28;20032;-78
2023/12/13 11:53:17;;;;;;;;;;;6.70;99.90;;;;;;5001560;28;19917;-78
2023/12/13 11:55:43;;;;;;;;;;;6.70;99.90;;;;;;5001331;28;19909;-78
2023/12/13 11:58:08;;;;;;;;;;;6.80;99.90;;;;;;5002693;28;19906;-77
2023/12/13 12:00:34;;;;;;;;;;;6.70;99.90;;;;;;5000962;28;20373;-76
2023/12/13 12:02:59;;;;;;;;;;;6.80;99.90;;;;;;5002752;28;19952;-78
2023/12/13 12:05:25;;;;;;;;;;;6.70;99.90;;;;;;5001428;28;19924;-78
2023/12/13 12:08:04;;;;;;;;;;;6.70;99.90;;;;;;5002188;28;19905;-78
2023/12/13 12:10:31;;;;;;;;;;;6.80;99.90;;;;;;5002838;28;19952;-78
2023/12/13 12:12:58;;;;;;;;;;;6.70;99.90;;;;;;5000585;28;19905;-78
2023/12/13 12:15:25;;;;;;;;;;;6.80;99.90;;;;;;5001206;28;19949;-78
2023/12/13 12:17:50;;;;;;;;;;;6.80;99.90;;;;;;5002886;28;19968;-78
2023/12/13 12:20:16;;;;;;;;;;;6.80;99.90;;;;;;5001896;28;19910;-78
2023/12/13 12:22:42;;;;;;;;;;;6.80;99.90;;;;;;5000735;28;19956;-78
2023/12/13 12:25:08;;;;;;;;;;;6.80;99.90;;;;;;5003279;28;19913;-78
2023/12/13 12:27:35;;;;;;;;;;;6.80;99.90;;;;;;5007321;28;19931;-78
2023/12/13 12:30:03;;;;;;;;;;;6.80;99.90;;;;;;5001693;28;19916;-78
2023/12/13 12:32:29;;;;;;;;;;;6.70;99.90;;;;;;4999119;28;19997;-78
2023/12/13 12:34:54;;;;;;;;;;;6.70;99.90;;;;;;4999934;28;19963;-78
2023/12/13 12:37:20;;;;;;;;;;;6.70;99.90;;;;;;5000250;28;19914;-78
2023/12/13 12:39:45;;;;;;;;;;;6.70;99.90;;;;;;4998665;28;19910;-78
2023/12/13 12:42:11;;;;;;;;;;;6.60;99.90;;;;;;5000528;28;19910;-78
2023/12/13 12:44:37;;;;;;;;;;;6.60;99.90;;;;;;4998237;28;19914;-78
2023/12/13 12:47:03;;;;;;;;;;;6.60;99.90;;;;;;4999874;28;19915;-78
2023/12/13 12:49:29;;;;;;;;;;;6.60;99.90;;;;;;4999236;28;19910;-78
2023/12/13 12:51:54;;;;;;;;;;;6.60;99.90;;;;;;5000013;28;19910;-78
2023/12/13 12:54:20;;;;;;;;;;;6.50;99.90;;;;;;4997186;28;19965;-78
2023/12/13 12:56:45;;;;;;;;;;;6.50;99.90;;;;;;4997613;28;20389;-78
2023/12/13 12:59:16;;;;;;;;;;;6.50;99.90;;;;;;4998346;28;19994;-77
2023/12/13 13:01:43;;;;;;;;;;;6.50;99.90;;;;;;4999545;28;19922;-77
2023/12/13 13:04:13;;;;;;;;;;;6.50;99.90;;;;;;4997947;28;19921;-78
2023/12/13 13:06:39;;;;;;;;;;;6.50;99.90;;;;;;4997235;28;19910;-77
2023/12/13 13:09:06;;;;;;;;;;;6.50;99.90;;;;;;4997517;28;19909;-77
2023/12/13 13:11:32;;;;;;;;;;;6.40;99.90;;;;;;4997746;28;19909;-77
2023/12/13 13:13:57;;;;;;;;;;;6.50;99.90;;;;;;4996993;28;19975;-79
2023/12/13 13:16:23;;;;;;;;;;;6.50;99.90;;;;;;4997821;28;20282;-77
2023/12/13 13:18:48;;;;;;;;;;;6.50;99.90;;;;;;4997848;28;19936;-77
2023/12/13 13:21:14;;;;;;;;;;;6.40;99.90;;;;;;4997200;28;19905;-77
2023/12/13 13:23:39;;;;;;;;;;;6.40;99.90;;;;;;4997915;28;19913;-78
2023/12/13 13:26:06;;;;;;;;;;;6.40;99.90;;;;;;4997948;28;19917;-77
2023/12/13 13:28:32;;;;;;;;;;;6.40;99.90;;;;;;4997402;28;19909;-78
2023/12/13 13:30:57;;;;;;;;;;;6.40;99.90;;;;;;4997266;28;20355;-77
2023/12/13 13:33:24;;;;;;;;;;;6.40;99.90;;;;;;4997893;28;19913;-77
2023/12/13 13:35:50;;;;;;;;;;;6.30;99.90;;;;;;4996841;28;19909;-78
2023/12/13 13:38:16;;;;;;;;;;;6.40;99.90;;;;;;4997965;28;19913;-77
2023/12/13 13:40:41;;;;;;;;;;;6.30;99.90;;;;;;4997256;28;19917;-78
2023/12/13 13:43:07;;;;;;;;;;;6.40;99.90;;;;;;4996853;28;19968;-77
2023/12/13 13:45:33;;;;;;;;;;;6.30;99.90;;;;;;4996236;28;19909;-77
2023/12/13 13:47:59;;;;;;;;;;;6.30;99.90;;;;;;4996655;28;19906;-78
2023/12/13 13:50:26;;;;;;;;;;;6.20;99.90;;;;;;4996827;28;19906;-78
2023/12/13 13:52:52;;;;;;;;;;;6.20;99.90;;;;;;4996289;28;20377;-77
2023/12/13 13:55:17;;;;;;;;;;;6.20;99.90;;;;;;4996635;28;19917;-78
2023/12/13 13:57:44;;;;;;;;;;;6.20;99.90;;;;;;4997558;28;19945;-77
2023/12/13 14:00:11;;;;;;;;;;;6.20;99.90;;;;;;4996316;28;19909;-77
2023/12/13 14:02:36;;;;;;;;;;;6.20;99.90;;;;;;4995800;28;20394;-77
2023/12/13 14:05:03;;;;;;;;;;;6.20;99.90;;;;;;4997378;28;19925;-78
2023/12/13 14:07:29;;;;;;;;;;;6.20;99.90;;;;;;4995906;28;19975;-77
2023/12/13 14:09:55;;;;;;;;;;;6.20;99.90;;;;;;4996036;28;20325;-77
2023/12/13 14:12:20;;;;;;;;;;;6.20;99.90;;;;;;4996510;28;19910;-78
2023/12/13 14:14:46;;;;;;;;;;;6.10;99.90;;;;;;4996732;28;19913;-77
2023/12/13 14:17:11;;;;;;;;;;;6.00;99.90;;;;;;4995515;28;20418;-77
2023/12/13 14:19:40;;;;;;;;;;;6.00;99.90;;;;;;4997838;28;19956;-78
2023/12/13 14:22:06;;;;;;;;;;;6.00;99.90;;;;;;4997191;28;19960;-78